createdAt,value
2017-03-10T00:00:50.214Z,8.22
2017-03-10T00:01:58.833Z,8.31
2017-03-10T00:03:07.713Z,8.24
2017-03-10T00:04:17.127Z,8.25
2017-03-10T00:05:26.520Z,8.24
2017-03-10T00:06:35.544Z,8.19
2017-03-10T00:07:44.548Z,8.24
2017-03-10T00:08:53.146Z,8.21
2017-03-10T00:10:02.137Z,8.24
2017-03-10T00:11:11.954Z,8.25
2017-03-10T00:12:20.955Z,8.21
2017-03-10T00:13:29.957Z,8.17
2017-03-10T00:14:38.954Z,8.26
2017-03-10T00:15:48.368Z,8.19
2017-03-10T00:16:56.977Z,8.19
2017-03-10T00:18:05.982Z,8.22
2017-03-10T00:19:14.576Z,8.22
2017-03-10T00:20:23.176Z,8.17
2017-03-10T00:21:32.185Z,8.19
2017-03-10T00:22:41.983Z,8.26
2017-03-10T00:23:50.975Z,8.17
2017-03-10T00:25:00.381Z,8.17
2017-03-10T00:26:09.376Z,8.09
2017-03-10T00:27:18.785Z,8.21
2017-03-10T00:28:27.808Z,8.21
2017-03-10T00:29:36.413Z,8.11
2017-03-10T00:30:45.436Z,8.11
2017-03-10T00:31:54.844Z,8.21
2017-03-10T00:33:03.854Z,8.19
2017-03-10T00:34:13.092Z,8.11
2017-03-10T00:35:21.691Z,8.1
2017-03-10T00:36:30.306Z,8.14
2017-03-10T00:37:38.933Z,8.11
2017-03-10T00:38:48.336Z,8.11
2017-03-10T00:39:56.939Z,8.11
2017-03-10T00:41:05.948Z,8.09
2017-03-10T00:42:14.949Z,8.03
2017-03-10T00:43:23.966Z,8.06
2017-03-10T00:44:32.576Z,8.01
2017-03-10T00:45:41.573Z,8.06
2017-03-10T00:46:50.207Z,7.96
2017-03-10T00:47:59.621Z,7.95
2017-03-10T00:49:09.435Z,7.96
2017-03-10T00:50:18.433Z,7.99
2017-03-10T00:51:27.422Z,7.95
2017-03-10T00:52:36.422Z,7.96
2017-03-10T00:53:45.025Z,7.92
2017-03-10T00:54:53.634Z,7.86
2017-03-10T00:56:02.651Z,7.86
2017-03-10T00:57:11.280Z,7.86
2017-03-10T00:58:20.319Z,7.83
2017-03-10T00:59:28.913Z,7.83
2017-03-10T01:00:38.344Z,7.85
2017-03-10T01:01:46.951Z,7.91
2017-03-10T01:02:55.951Z,7.93
2017-03-10T01:04:04.949Z,7.92
2017-03-10T01:05:13.974Z,7.93
2017-03-10T01:06:22.984Z,7.91
2017-03-10T01:07:32.378Z,7.89
2017-03-10T01:08:41.372Z,7.8
2017-03-10T01:09:50.378Z,7.77
2017-03-10T01:10:59.788Z,7.71
2017-03-10T01:12:09.604Z,7.7
2017-03-10T01:13:19.007Z,7.71
2017-03-10T01:14:28.402Z,7.63
2017-03-10T01:15:37.201Z,7.58
2017-03-10T01:16:46.199Z,7.54
2017-03-10T01:17:55.219Z,7.58
2017-03-10T01:19:04.241Z,7.55
2017-03-10T01:20:13.290Z,7.55
2017-03-10T01:21:22.292Z,7.63
2017-03-10T01:22:30.926Z,7.41
2017-03-10T01:23:40.328Z,7.56
2017-03-10T01:24:49.366Z,7.52
2017-03-10T01:25:59.187Z,7.52
2017-03-10T01:27:08.594Z,7.52
2017-03-10T01:28:17.599Z,7.52
2017-03-10T01:29:27.429Z,7.48
2017-03-10T01:30:36.828Z,7.51
2017-03-10T01:31:45.818Z,7.47
2017-03-10T01:32:55.243Z,7.36
2017-03-10T01:34:04.636Z,7.4
2017-03-10T01:35:14.061Z,7.4
2017-03-10T01:36:22.687Z,7.39
2017-03-10T01:37:32.124Z,7.4
2017-03-10T01:38:41.533Z,7.41
2017-03-10T01:39:50.955Z,7.44
2017-03-10T01:40:59.569Z,7.41
2017-03-10T01:42:08.616Z,7.45
2017-03-10T01:43:18.021Z,7.45
2017-03-10T01:44:26.624Z,7.54
2017-03-10T01:45:36.042Z,7.49
2017-03-10T01:46:45.437Z,7.59
2017-03-10T01:47:54.443Z,7.52
2017-03-10T01:49:03.844Z,7.51
2017-03-10T01:50:12.433Z,7.54
2017-03-10T01:51:21.835Z,7.54
2017-03-10T01:52:31.243Z,7.54
2017-03-10T01:53:41.069Z,7.51
2017-03-10T01:54:50.866Z,7.51
2017-03-10T01:55:59.480Z,7.51
2017-03-10T01:57:08.888Z,7.52
2017-03-10T01:58:17.886Z,7.39
2017-03-10T01:59:26.887Z,7.45
2017-03-10T02:00:35.917Z,7.47
2017-03-10T02:01:45.721Z,7.4
2017-03-10T02:02:54.315Z,7.41
2017-03-10T02:04:03.310Z,7.44
2017-03-10T02:05:11.924Z,7.48
2017-03-10T02:06:21.731Z,7.45
2017-03-10T02:07:30.334Z,7.54
2017-03-10T02:08:39.754Z,7.52
2017-03-10T02:09:48.792Z,7.52
2017-03-10T02:10:57.399Z,7.47
2017-03-10T02:12:06.796Z,7.44
2017-03-10T02:13:15.807Z,7.52
2017-03-10T02:14:24.817Z,7.49
2017-03-10T02:15:33.822Z,7.47
2017-03-10T02:16:42.814Z,7.48
2017-03-10T02:17:52.214Z,7.48
2017-03-10T02:19:01.641Z,7.52
2017-03-10T02:20:10.642Z,7.4
2017-03-10T02:21:19.234Z,7.41
2017-03-10T02:22:28.232Z,7.4
2017-03-10T02:23:36.831Z,7.39
2017-03-10T02:24:46.226Z,7.47
2017-03-10T02:25:55.221Z,7.44
2017-03-10T02:27:03.814Z,7.39
2017-03-10T02:28:12.833Z,7.37
2017-03-10T02:29:21.832Z,7.45
2017-03-10T02:30:31.225Z,7.39
2017-03-10T02:31:39.825Z,7.39
2017-03-10T02:32:48.437Z,7.44
2017-03-10T02:33:57.063Z,7.4
2017-03-10T02:35:06.464Z,7.48
2017-03-10T02:36:15.062Z,7.49
2017-03-10T02:37:23.669Z,7.47
2017-03-10T02:38:33.466Z,7.37
2017-03-10T02:39:42.492Z,7.41
2017-03-10T02:40:51.093Z,7.51
2017-03-10T02:42:00.507Z,7.48
2017-03-10T02:43:09.525Z,7.49
2017-03-10T02:44:18.545Z,7.52
2017-03-10T02:45:27.541Z,7.49
2017-03-10T02:46:36.140Z,7.47
2017-03-10T02:47:45.541Z,7.37
2017-03-10T02:48:54.171Z,7.45
2017-03-10T02:50:02.766Z,7.36
2017-03-10T02:51:11.798Z,7.41
2017-03-10T02:52:22.004Z,7.36
2017-03-10T02:53:30.606Z,7.44
2017-03-10T02:54:39.610Z,7.36
2017-03-10T02:55:49.020Z,7.23
2017-03-10T02:56:58.833Z,7.22
2017-03-10T02:58:07.826Z,7.27
2017-03-10T02:59:16.435Z,7.21
2017-03-10T03:00:25.047Z,7.23
2017-03-10T03:01:34.450Z,7.22
2017-03-10T03:02:44.245Z,7.15
2017-03-10T03:03:53.549Z,7.19
2017-03-10T03:05:02.552Z,7.15
2017-03-10T03:06:11.156Z,7.22
2017-03-10T03:07:20.175Z,7.15
2017-03-10T03:08:29.182Z,7.18
2017-03-10T03:09:37.780Z,7.29
2017-03-10T03:10:47.172Z,7.26
2017-03-10T03:11:56.182Z,7.23
2017-03-10T03:13:05.184Z,7.15
2017-03-10T03:14:14.175Z,7.22
2017-03-10T03:15:23.219Z,7.21
2017-03-10T03:16:32.228Z,7.23
2017-03-10T03:17:41.631Z,7.15
2017-03-10T03:18:51.438Z,7.15
2017-03-10T03:20:00.854Z,7.18
2017-03-10T03:21:10.257Z,7.22
2017-03-10T03:22:19.372Z,7.22
2017-03-10T03:23:28.410Z,7.19
2017-03-10T03:24:37.418Z,7.21
2017-03-10T03:25:46.073Z,7.15
2017-03-10T03:26:55.082Z,7.27
2017-03-10T03:28:04.482Z,7.22
2017-03-10T03:29:13.472Z,7.31
2017-03-10T03:30:22.491Z,7.23
2017-03-10T03:31:31.503Z,7.23
2017-03-10T03:32:40.897Z,7.29
2017-03-10T03:33:49.943Z,7.26
2017-03-10T03:34:58.950Z,7.29
2017-03-10T03:36:07.952Z,7.21
2017-03-10T03:37:16.552Z,7.33
2017-03-10T03:38:25.547Z,7.16
2017-03-10T03:39:34.154Z,7.31
2017-03-10T03:40:42.766Z,7.26
2017-03-10T03:41:52.172Z,7.34
2017-03-10T03:43:01.160Z,7.23
2017-03-10T03:44:10.168Z,7.16
2017-03-10T03:45:19.174Z,7.27
2017-03-10T03:46:28.189Z,7.16
2017-03-10T03:47:37.192Z,7.22
2017-03-10T03:48:46.187Z,7.26
2017-03-10T03:49:55.213Z,7.16
2017-03-10T03:51:04.623Z,7.18
2017-03-10T03:52:13.619Z,7.13
2017-03-10T03:53:22.615Z,7.12
2017-03-10T03:54:32.008Z,7.09
2017-03-10T03:55:40.623Z,7.01
2017-03-10T03:56:49.625Z,7
2017-03-10T03:57:59.036Z,7.04
2017-03-10T03:59:08.047Z,7
2017-03-10T04:00:17.069Z,7.03
2017-03-10T04:01:26.067Z,7.12
2017-03-10T04:02:34.689Z,7.13
2017-03-10T04:03:44.124Z,7.09
2017-03-10T04:04:53.524Z,7.09
2017-03-10T04:06:02.528Z,7.09
2017-03-10T04:07:11.154Z,7.09
2017-03-10T04:08:20.567Z,7.15
2017-03-10T04:09:29.960Z,7.15
2017-03-10T04:10:38.975Z,7.16
2017-03-10T04:11:47.575Z,7.26
2017-03-10T04:12:56.182Z,7.19
2017-03-10T04:14:04.815Z,7.27
2017-03-10T04:15:13.834Z,7.21
2017-03-10T04:16:22.846Z,7.23
2017-03-10T04:17:32.268Z,7.27
2017-03-10T04:18:41.293Z,7.22
2017-03-10T04:19:50.306Z,7.29
2017-03-10T04:20:59.316Z,7.36
2017-03-10T04:22:08.330Z,7.36
2017-03-10T04:23:16.944Z,7.34
2017-03-10T04:24:25.538Z,7.34
2017-03-10T04:25:34.951Z,7.4
2017-03-10T04:26:43.957Z,7.36
2017-03-10T04:27:53.379Z,7.44
2017-03-10T04:29:02.399Z,7.39
2017-03-10T04:30:11.015Z,7.39
2017-03-10T04:31:19.623Z,7.4
2017-03-10T04:32:28.215Z,7.45
2017-03-10T04:33:36.833Z,7.47
2017-03-10T04:34:45.433Z,7.49
2017-03-10T04:35:54.859Z,7.45
2017-03-10T04:37:04.263Z,7.49
2017-03-10T04:38:13.255Z,7.41
2017-03-10T04:39:22.278Z,7.48
2017-03-10T04:40:30.885Z,7.49
2017-03-10T04:41:40.050Z,7.55
2017-03-10T04:42:49.589Z,7.51
2017-03-10T04:43:58.585Z,7.55
2017-03-10T04:45:09.187Z,7.52
2017-03-10T04:46:19.190Z,7.52
2017-03-10T04:47:28.881Z,7.45
2017-03-10T04:48:38.872Z,7.48
2017-03-10T04:49:48.274Z,7.51
2017-03-10T04:50:57.680Z,7.52
2017-03-10T04:52:06.684Z,7.52
2017-03-10T04:53:15.311Z,7.47
2017-03-10T04:54:24.703Z,7.48
2017-03-10T04:55:33.709Z,7.55
2017-03-10T04:56:42.701Z,7.41
2017-03-10T04:57:51.303Z,7.54
2017-03-10T04:59:00.718Z,7.49
2017-03-10T05:00:09.719Z,7.45
2017-03-10T05:01:18.333Z,7.44
2017-03-10T05:02:27.747Z,7.51
2017-03-10T05:03:36.767Z,7.49
2017-03-10T05:04:45.773Z,7.34
2017-03-10T05:05:54.391Z,7.37
2017-03-10T05:07:03.380Z,7.37
2017-03-10T05:08:12.773Z,7.37
2017-03-10T05:09:21.762Z,7.39
2017-03-10T05:10:30.354Z,7.36
2017-03-10T05:11:39.351Z,7.36
2017-03-10T05:12:47.955Z,7.21
2017-03-10T05:13:56.581Z,7.22
2017-03-10T05:15:05.595Z,7.23
2017-03-10T05:16:15.404Z,7.29
2017-03-10T05:17:24.409Z,7.3
2017-03-10T05:18:33.402Z,7.21
2017-03-10T05:19:42.017Z,7.21
2017-03-10T05:20:50.630Z,7.12
2017-03-10T05:22:00.450Z,7
2017-03-10T05:23:09.056Z,7
2017-03-10T05:24:17.671Z,6.95
2017-03-10T05:25:27.479Z,6.88
2017-03-10T05:26:36.482Z,6.91
2017-03-10T05:27:45.480Z,6.78
2017-03-10T05:28:54.483Z,6.82
2017-03-10T05:30:03.901Z,6.79
2017-03-10T05:31:12.498Z,6.78
2017-03-10T05:32:21.171Z,6.78
2017-03-10T05:33:30.578Z,6.7
2017-03-10T05:34:39.594Z,6.7
2017-03-10T05:35:48.603Z,6.58
2017-03-10T05:36:57.625Z,6.6
2017-03-10T05:38:07.420Z,6.58
2017-03-10T05:39:16.032Z,6.51
2017-03-10T05:40:25.442Z,6.37
2017-03-10T05:41:34.436Z,6.44
2017-03-10T05:42:43.483Z,6.39
2017-03-10T05:43:52.888Z,6.28
2017-03-10T05:45:02.288Z,6.24
2017-03-10T05:46:10.934Z,6.26
2017-03-10T05:47:19.534Z,6.21
2017-03-10T05:48:28.199Z,6.13
2017-03-10T05:49:37.217Z,6.2
2017-03-10T05:50:46.245Z,6.17
2017-03-10T05:51:55.236Z,6.1
2017-03-10T05:53:04.255Z,6.05
2017-03-10T05:54:12.848Z,6
2017-03-10T05:55:21.461Z,6.06
2017-03-10T05:56:30.063Z,6.02
2017-03-10T05:57:38.653Z,5.96
2017-03-10T05:58:47.674Z,5.91
2017-03-10T05:59:56.268Z,5.98
2017-03-10T06:01:05.287Z,5.88
2017-03-10T06:02:14.710Z,5.84
2017-03-10T06:03:23.727Z,5.85
2017-03-10T06:04:32.320Z,5.82
2017-03-10T06:05:41.739Z,5.84
2017-03-10T06:06:51.143Z,5.75
2017-03-10T06:07:59.801Z,5.73
2017-03-10T06:09:08.440Z,5.75
2017-03-10T06:10:17.047Z,5.66
2017-03-10T06:11:26.082Z,5.69
2017-03-10T06:12:35.508Z,5.66
2017-03-10T06:13:44.504Z,5.63
2017-03-10T06:14:53.956Z,5.62
2017-03-10T06:16:03.404Z,5.6
2017-03-10T06:17:12.400Z,5.63
2017-03-10T06:18:21.418Z,5.6
2017-03-10T06:19:30.837Z,5.6
2017-03-10T06:20:40.260Z,5.55
2017-03-10T06:21:48.908Z,5.51
2017-03-10T06:22:57.528Z,5.59
2017-03-10T06:24:06.552Z,5.6
2017-03-10T06:25:15.956Z,5.46
2017-03-10T06:26:25.380Z,5.51
2017-03-10T06:27:33.993Z,5.49
2017-03-10T06:28:42.602Z,5.52
2017-03-10T06:29:52.031Z,5.48
2017-03-10T06:31:01.038Z,5.44
2017-03-10T06:32:10.060Z,5.52
2017-03-10T06:33:18.683Z,5.42
2017-03-10T06:34:27.683Z,5.36
2017-03-10T06:35:37.097Z,5.36
2017-03-10T06:36:46.115Z,5.44
2017-03-10T06:37:55.129Z,5.41
2017-03-10T06:39:04.547Z,5.37
2017-03-10T06:40:13.543Z,5.48
2017-03-10T06:41:22.943Z,5.51
2017-03-10T06:42:32.349Z,5.44
2017-03-10T06:45:20.088Z,5.49
2017-03-10T06:46:29.161Z,5.46
2017-03-10T06:47:38.577Z,5.51
2017-03-10T06:48:47.613Z,5.57
2017-03-10T06:49:56.628Z,5.54
2017-03-10T06:51:06.023Z,5.45
2017-03-10T06:52:15.772Z,5.54
2017-03-10T06:53:24.943Z,5.54
2017-03-10T06:54:33.578Z,5.51
2017-03-10T06:55:43.401Z,5.57
2017-03-10T06:56:52.397Z,5.62
2017-03-10T06:58:01.421Z,5.59
2017-03-10T06:59:10.417Z,5.7
2017-03-10T07:00:19.012Z,5.66
2017-03-10T07:01:28.414Z,5.77
2017-03-10T07:02:37.815Z,5.78
2017-03-10T07:03:46.810Z,5.85
2017-03-10T07:04:55.822Z,5.88
2017-03-10T07:06:04.846Z,5.99
2017-03-10T07:07:13.441Z,5.95
2017-03-10T07:08:22.043Z,6.03
2017-03-10T07:09:31.043Z,6.09
2017-03-10T07:10:40.464Z,6.24
2017-03-10T07:11:49.868Z,6.21
2017-03-10T07:12:58.883Z,6.28
2017-03-10T07:14:07.932Z,6.46
2017-03-10T07:15:16.531Z,6.54
2017-03-10T07:16:25.948Z,6.47
2017-03-10T07:17:35.361Z,6.55
2017-03-10T07:18:43.956Z,6.62
2017-03-10T07:19:53.376Z,6.62
2017-03-10T07:21:01.986Z,6.7
2017-03-10T07:22:10.616Z,6.64
2017-03-10T07:23:20.013Z,6.73
2017-03-10T07:24:29.024Z,6.78
2017-03-10T07:25:38.463Z,6.73
2017-03-10T07:26:48.562Z,6.73
2017-03-10T07:27:57.949Z,6.75
2017-03-10T07:29:06.967Z,6.72
2017-03-10T07:30:15.975Z,6.79
2017-03-10T07:31:24.973Z,6.82
2017-03-10T07:32:34.658Z,6.82
2017-03-10T07:33:43.261Z,6.75
2017-03-10T07:34:51.863Z,6.83
2017-03-10T07:36:01.363Z,6.86
2017-03-10T07:37:09.966Z,6.88
2017-03-10T07:38:19.365Z,6.97
2017-03-10T07:39:28.364Z,7.03
2017-03-10T07:40:36.999Z,7.08
2017-03-10T07:41:46.040Z,7.03
2017-03-10T07:42:54.682Z,7.05
2017-03-10T07:44:03.327Z,7.04
2017-03-10T07:45:12.324Z,7.16
2017-03-10T07:46:21.110Z,7.11
2017-03-10T07:47:30.152Z,7.13
2017-03-10T07:48:38.761Z,7.18
2017-03-10T07:49:47.420Z,7.18
2017-03-10T07:50:56.495Z,7.23
2017-03-10T07:52:06.726Z,7.23
2017-03-10T07:53:16.140Z,7.3
2017-03-10T07:54:25.200Z,7.34
2017-03-10T07:55:34.606Z,7.36
2017-03-10T07:56:43.602Z,7.41
2017-03-10T07:57:52.213Z,7.41
2017-03-10T07:59:00.855Z,7.37
2017-03-10T08:00:09.890Z,7.37
2017-03-10T08:01:19.309Z,7.45
2017-03-10T08:02:28.324Z,7.48
2017-03-10T08:03:37.503Z,7.56
2017-03-10T08:04:46.530Z,7.41
2017-03-10T08:05:55.961Z,7.58
2017-03-10T08:07:04.596Z,7.56
2017-03-10T08:08:13.193Z,7.67
2017-03-10T08:09:21.827Z,7.73
2017-03-10T08:10:31.237Z,7.83
2017-03-10T08:11:40.237Z,7.78
2017-03-10T08:12:49.248Z,7.88
2017-03-10T08:13:58.266Z,7.85
2017-03-10T08:15:06.891Z,7.92
2017-03-10T08:16:15.899Z,7.85
2017-03-10T08:17:25.313Z,7.89
2017-03-10T08:18:33.926Z,7.89
2017-03-10T08:19:42.948Z,7.92
2017-03-10T08:20:51.968Z,8.04
2017-03-10T08:22:00.633Z,8.01
2017-03-10T08:23:09.250Z,8.17
2017-03-10T08:24:18.255Z,8.32
2017-03-10T08:25:27.261Z,8.4
2017-03-10T08:26:36.137Z,8.49
2017-03-10T08:27:44.754Z,8.54
2017-03-10T08:28:54.152Z,8.8
2017-03-10T08:30:03.191Z,8.76
2017-03-10T08:31:11.822Z,8.87
2017-03-10T08:32:21.239Z,8.86
2017-03-10T08:33:30.250Z,8.87
2017-03-10T08:34:38.987Z,8.74
2017-03-10T08:35:47.996Z,8.79
2017-03-10T08:36:57.420Z,8.77
2017-03-10T08:38:06.429Z,8.86
2017-03-10T08:39:15.463Z,8.83
2017-03-10T08:40:24.486Z,8.89
2017-03-10T08:41:33.111Z,8.95
2017-03-10T08:42:42.106Z,9.04
2017-03-10T08:43:51.524Z,9.12
2017-03-10T08:45:00.542Z,9.17
2017-03-10T08:46:09.606Z,9.14
2017-03-10T08:47:18.608Z,9.05
2017-03-10T08:48:27.627Z,9.17
2017-03-10T08:49:37.015Z,9.21
2017-03-10T08:50:45.622Z,9.21
2017-03-10T08:51:54.243Z,9.19
2017-03-10T08:53:04.371Z,9.29
2017-03-10T08:54:13.799Z,9.2
2017-03-10T08:55:22.417Z,9.29
2017-03-10T08:56:31.024Z,9.27
2017-03-10T08:57:40.038Z,9.26
2017-03-10T08:58:48.646Z,9.24
2017-03-10T08:59:57.296Z,9.24
2017-03-10T09:01:05.919Z,9.24
2017-03-10T09:02:14.732Z,9.23
2017-03-10T09:03:25.183Z,9.32
2017-03-10T09:04:36.210Z,9.3
2017-03-10T09:05:45.341Z,9.32
2017-03-10T09:06:53.959Z,9.3
2017-03-10T09:08:03.794Z,9.35
2017-03-10T09:09:13.786Z,9.41
2017-03-10T09:10:22.815Z,9.47
2017-03-10T09:11:32.233Z,9.5
2017-03-10T09:12:40.844Z,9.55
2017-03-10T09:13:49.459Z,9.45
2017-03-10T09:14:58.551Z,9.39
2017-03-10T09:16:08.311Z,9.42
2017-03-10T09:17:19.619Z,9.32
2017-03-10T09:18:28.646Z,9.26
2017-03-10T09:19:38.062Z,9.26
2017-03-10T09:20:47.081Z,9.27
2017-03-10T09:21:55.758Z,9.32
2017-03-10T09:23:04.786Z,9.44
2017-03-10T09:24:13.415Z,9.41
2017-03-10T09:25:22.470Z,9.47
2017-03-10T09:26:31.485Z,9.5
2017-03-10T09:27:40.970Z,9.5
2017-03-10T09:28:50.402Z,9.55
2017-03-10T09:29:59.016Z,9.5
2017-03-10T09:31:08.456Z,9.52
2017-03-10T09:32:17.476Z,9.56
2017-03-10T09:33:26.079Z,9.5
2017-03-10T09:34:35.090Z,9.6
2017-03-10T09:35:44.512Z,9.66
2017-03-10T09:36:53.505Z,9.77
2017-03-10T09:38:02.533Z,9.81
2017-03-10T09:39:11.927Z,9.81
2017-03-10T09:40:20.531Z,9.85
2017-03-10T09:41:29.544Z,9.92
2017-03-10T09:42:38.950Z,9.92
2017-03-10T09:43:47.966Z,9.88
2017-03-10T09:44:56.595Z,9.98
2017-03-10T09:46:05.612Z,9.96
2017-03-10T09:47:14.660Z,9.96
2017-03-10T09:48:24.072Z,9.92
2017-03-10T09:49:33.080Z,9.9
2017-03-10T09:50:42.079Z,9.85
2017-03-10T09:51:51.078Z,9.77
2017-03-10T09:53:00.119Z,9.64
2017-03-10T09:54:08.728Z,9.55
2017-03-10T09:55:17.473Z,9.67
2017-03-10T09:56:26.909Z,9.5
2017-03-10T09:57:35.515Z,9.42
2017-03-10T09:58:44.138Z,9.39
2017-03-10T09:59:53.138Z,9.35
2017-03-10T10:01:02.139Z,9.37
2017-03-10T10:02:11.202Z,9.32
2017-03-10T10:03:20.616Z,9.24
2017-03-10T10:04:29.239Z,9.26
2017-03-10T10:05:38.703Z,9.23
2017-03-10T10:06:47.299Z,9.19
2017-03-10T10:07:56.297Z,9.2
2017-03-10T10:09:05.339Z,9.2
2017-03-10T10:10:14.348Z,9.2
2017-03-10T10:11:23.345Z,9.2
2017-03-10T10:12:32.010Z,9.2
2017-03-10T10:13:41.038Z,9.23
2017-03-10T10:14:50.852Z,9.19
2017-03-10T10:16:00.321Z,9.17
2017-03-10T10:17:09.745Z,9.26
2017-03-10T10:18:18.770Z,9.24
2017-03-10T10:19:27.401Z,9.29
2017-03-10T10:20:36.480Z,9.29
2017-03-10T10:21:45.561Z,9.37
2017-03-10T10:22:54.563Z,9.32
2017-03-10T10:24:03.614Z,9.38
2017-03-10T10:25:13.014Z,9.39
2017-03-10T10:26:22.040Z,9.38
2017-03-10T10:27:31.734Z,9.38
2017-03-10T10:28:40.759Z,9.39
2017-03-10T10:29:49.374Z,9.37
2017-03-10T10:30:57.975Z,9.37
2017-03-10T10:32:06.991Z,9.41
2017-03-10T10:33:16.422Z,9.53
2017-03-10T10:34:26.247Z,9.63
2017-03-10T10:35:34.849Z,9.55
2017-03-10T10:36:43.463Z,9.64
2017-03-10T10:37:52.473Z,9.7
2017-03-10T10:39:01.136Z,9.71
2017-03-10T10:40:10.135Z,9.84
2017-03-10T10:41:19.135Z,9.89
2017-03-10T10:42:28.567Z,10.03
2017-03-10T10:43:37.580Z,10.08
2017-03-10T10:44:46.989Z,10.2
2017-03-10T10:45:55.630Z,10.21
2017-03-10T10:47:04.247Z,10.32
2017-03-10T10:48:12.970Z,10.21
2017-03-10T10:49:22.170Z,10.35
2017-03-10T10:50:30.801Z,10.29
2017-03-10T10:51:39.872Z,10.36
2017-03-10T10:52:48.870Z,10.33
2017-03-10T10:53:57.875Z,10.21
2017-03-10T10:55:06.881Z,10.18
2017-03-10T10:56:15.915Z,10.2
2017-03-10T10:57:24.518Z,10.1
2017-03-10T10:58:33.124Z,10.11
2017-03-10T10:59:41.732Z,10.17
2017-03-10T11:00:50.786Z,10.05
2017-03-10T11:01:59.802Z,10.08
2017-03-10T11:03:08.460Z,10.13
2017-03-10T11:04:17.485Z,10.03
2017-03-10T11:05:26.895Z,10
2017-03-10T11:06:35.523Z,10.05
2017-03-10T11:07:44.923Z,9.96
2017-03-10T11:08:54.338Z,9.98
2017-03-10T11:10:03.823Z,9.95
2017-03-10T11:11:12.960Z,10.08
2017-03-10T11:12:21.611Z,10
2017-03-10T11:13:30.647Z,10.05
2017-03-10T11:14:39.651Z,10.07
2017-03-10T11:15:48.673Z,10.03
2017-03-10T11:16:57.570Z,10.03
2017-03-10T11:18:06.589Z,10.05
2017-03-10T11:19:15.199Z,10
2017-03-10T11:20:24.214Z,10.02
2017-03-10T11:21:33.233Z,10.07
2017-03-10T11:22:41.838Z,10.07
2017-03-10T11:23:50.832Z,10.14
2017-03-10T11:25:00.231Z,10.08
2017-03-10T11:26:09.640Z,10.11
2017-03-10T11:27:18.919Z,10.18
2017-03-10T11:28:27.929Z,10.21
2017-03-10T11:29:36.922Z,10.26
2017-03-10T11:30:45.928Z,10.28
2017-03-10T11:31:55.740Z,10.26
2017-03-10T11:33:05.536Z,10.29
2017-03-10T11:34:14.558Z,10.23
2017-03-10T11:35:23.553Z,10.25
2017-03-10T11:36:32.981Z,10.29
2017-03-10T11:37:43.136Z,10.25
2017-03-10T11:38:51.751Z,10.33
2017-03-10T11:40:00.768Z,10.23
2017-03-10T11:41:09.402Z,10.33
2017-03-10T11:42:18.445Z,10.26
2017-03-10T11:43:27.450Z,10.35
2017-03-10T11:44:36.060Z,10.36
2017-03-10T11:45:45.461Z,10.31
2017-03-10T11:46:54.273Z,10.28
2017-03-10T11:48:03.540Z,10.29
2017-03-10T11:49:12.942Z,10.42
2017-03-10T11:50:21.953Z,10.39
2017-03-10T11:51:30.957Z,10.28
2017-03-10T11:52:39.971Z,10.39
2017-03-10T11:53:49.472Z,10.32
2017-03-10T11:54:58.884Z,10.38
2017-03-10T11:56:07.916Z,10.33
2017-03-10T11:57:17.331Z,10.35
2017-03-10T11:58:26.614Z,10.38
2017-03-10T11:59:36.070Z,10.35
2017-03-10T12:00:45.125Z,10.38
2017-03-10T12:01:54.523Z,10.39
2017-03-10T12:03:03.924Z,10.26
2017-03-10T12:04:12.521Z,10.32
2017-03-10T12:05:21.536Z,10.39
2017-03-10T12:06:30.563Z,10.35
2017-03-10T12:07:39.584Z,10.41
2017-03-10T12:08:48.201Z,10.35
2017-03-10T12:09:57.833Z,10.46
2017-03-10T12:11:06.996Z,10.47
2017-03-10T12:12:16.099Z,10.47
2017-03-10T12:13:25.248Z,10.61
2017-03-10T12:14:34.338Z,10.54
2017-03-10T12:15:43.348Z,10.57
2017-03-10T12:16:52.808Z,10.66
2017-03-10T12:18:01.853Z,10.67
2017-03-10T12:19:10.519Z,10.72
2017-03-10T12:20:19.783Z,10.75
2017-03-10T12:21:29.304Z,10.73
2017-03-10T12:22:38.831Z,10.75
2017-03-10T12:23:48.300Z,10.8
2017-03-10T12:24:56.949Z,10.76
2017-03-10T12:26:06.401Z,10.85
2017-03-10T12:27:16.626Z,10.87
2017-03-10T12:28:25.651Z,10.83
2017-03-10T12:29:34.689Z,10.92
2017-03-10T12:30:43.734Z,10.9
2017-03-10T12:31:52.783Z,10.97
2017-03-10T12:33:02.237Z,10.97
2017-03-10T12:34:10.877Z,10.91
2017-03-10T12:35:19.890Z,10.98
2017-03-10T12:36:28.522Z,10.94
2017-03-10T12:37:37.954Z,11.06
2017-03-10T12:38:46.617Z,11.02
2017-03-10T12:39:55.238Z,11.02
2017-03-10T12:41:04.270Z,10.97
2017-03-10T12:42:13.393Z,10.95
2017-03-10T12:43:22.860Z,10.94
2017-03-10T12:44:35.361Z,10.97
2017-03-10T12:45:44.423Z,10.97
2017-03-10T12:46:53.079Z,11.02
2017-03-10T12:48:02.121Z,11.02
2017-03-10T12:49:11.181Z,11.09
2017-03-10T12:50:20.233Z,11.12
2017-03-10T12:51:29.252Z,11.18
2017-03-10T12:52:38.329Z,11.18
2017-03-10T12:53:46.978Z,11.23
2017-03-10T12:54:56.004Z,11.28
2017-03-10T12:56:05.402Z,11.28
2017-03-10T12:57:14.011Z,11.27
2017-03-10T12:58:23.424Z,11.23
2017-03-10T12:59:32.461Z,11.21
2017-03-10T13:00:41.459Z,11.2
2017-03-10T13:01:51.074Z,11.18
2017-03-10T13:03:00.084Z,11.2
2017-03-10T13:04:09.104Z,11.21
2017-03-10T13:05:17.747Z,11.2
2017-03-10T13:06:26.746Z,11.35
2017-03-10T13:07:36.169Z,11.28
2017-03-10T13:08:45.179Z,11.28
2017-03-10T13:09:54.178Z,11.31
2017-03-10T13:11:02.789Z,11.33
2017-03-10T13:12:11.808Z,11.34
2017-03-10T13:13:20.802Z,11.21
2017-03-10T13:14:30.215Z,11.27
2017-03-10T13:15:39.220Z,11.27
2017-03-10T13:16:47.835Z,11.24
2017-03-10T13:17:57.247Z,11.21
2017-03-10T13:19:06.262Z,11.23
2017-03-10T13:20:15.278Z,11.24
2017-03-10T13:21:24.955Z,11.3
2017-03-10T13:22:34.364Z,11.27
2017-03-10T13:23:43.784Z,11.34
2017-03-10T13:24:53.221Z,11.21
2017-03-10T13:26:02.222Z,11.24
2017-03-10T13:27:10.819Z,11.35
2017-03-10T13:28:19.456Z,11.33
2017-03-10T13:29:29.277Z,11.39
2017-03-10T13:30:38.708Z,11.41
2017-03-10T13:31:47.312Z,11.42
2017-03-10T13:32:56.335Z,11.38
2017-03-10T13:34:04.941Z,11.45
2017-03-10T13:35:13.983Z,11.49
2017-03-10T13:36:22.991Z,11.45
2017-03-10T13:37:31.994Z,11.41
2017-03-10T13:38:41.403Z,11.39
2017-03-10T13:39:50.410Z,11.38
2017-03-10T13:40:59.416Z,11.35
2017-03-10T13:42:08.263Z,11.41
2017-03-10T13:43:16.870Z,11.31
2017-03-10T13:44:26.275Z,11.35
2017-03-10T13:45:35.284Z,11.27
2017-03-10T13:46:44.692Z,11.21
2017-03-10T13:47:54.503Z,11.21
2017-03-10T13:49:03.503Z,11.23
2017-03-10T13:50:12.510Z,11.26
2017-03-10T13:51:21.504Z,11.24
2017-03-10T13:52:31.173Z,11.24
2017-03-10T13:53:39.778Z,11.23
2017-03-10T13:54:48.403Z,11.24
2017-03-10T13:55:57.010Z,11.24
2017-03-10T13:57:06.009Z,11.15
2017-03-10T13:58:14.625Z,11.23
2017-03-10T13:59:23.227Z,11.23
2017-03-10T14:00:31.826Z,11.21
2017-03-10T14:01:40.869Z,11.24
2017-03-10T14:02:49.485Z,11.34
2017-03-10T14:03:58.914Z,11.38
2017-03-10T14:05:07.528Z,11.42
2017-03-10T14:06:16.207Z,11.38
2017-03-10T14:07:25.221Z,11.42
2017-03-10T14:08:34.526Z,11.49
2017-03-10T14:09:43.175Z,11.43
2017-03-10T14:10:52.252Z,11.48
2017-03-10T14:12:01.686Z,11.6
2017-03-10T14:13:10.694Z,11.68
2017-03-10T14:14:19.342Z,11.85
2017-03-10T14:15:27.964Z,11.85
2017-03-10T14:16:36.989Z,11.75
2017-03-10T14:17:46.020Z,11.82
2017-03-10T14:18:55.044Z,11.88
2017-03-10T14:20:03.678Z,11.88
2017-03-10T14:21:13.078Z,11.91
2017-03-10T14:22:22.620Z,12.05
2017-03-10T14:23:32.023Z,12.08
2017-03-10T14:24:41.024Z,12.1
2017-03-10T14:25:50.039Z,12.19
2017-03-10T14:26:59.058Z,12.1
2017-03-10T14:28:08.698Z,12.16
2017-03-10T14:29:17.948Z,12.16
2017-03-10T14:30:26.573Z,12.11
2017-03-10T14:31:35.618Z,12.22
2017-03-10T14:32:45.436Z,12.26
2017-03-10T14:33:54.442Z,12.2
2017-03-10T14:35:03.441Z,12.23
2017-03-10T14:36:12.443Z,12.26
2017-03-10T14:37:21.476Z,12.23
2017-03-10T14:38:30.471Z,12.29
2017-03-10T14:39:39.474Z,12.34
2017-03-10T14:40:49.274Z,12.31
2017-03-10T14:41:57.899Z,12.4
2017-03-10T14:43:07.710Z,12.34
2017-03-10T14:44:16.720Z,12.31
2017-03-10T14:45:25.741Z,12.26
2017-03-10T14:46:35.151Z,12.31
2017-03-10T14:47:44.165Z,12.36
2017-03-10T14:48:53.605Z,12.43
2017-03-10T14:50:02.609Z,12.43
2017-03-10T14:51:11.640Z,12.4
2017-03-10T14:52:21.060Z,12.33
2017-03-10T14:53:30.073Z,12.28
2017-03-10T14:54:39.348Z,12.34
2017-03-10T14:55:48.344Z,12.29
2017-03-10T14:56:56.956Z,12.33
2017-03-10T14:58:05.561Z,12.28
2017-03-10T14:59:14.586Z,12.22
2017-03-10T15:00:24.012Z,12.23
2017-03-10T15:01:33.011Z,12.19
2017-03-10T15:02:42.015Z,12.2
2017-03-10T15:03:50.631Z,12.15
2017-03-10T15:04:59.229Z,12.19
2017-03-10T15:06:08.497Z,12.23
2017-03-10T15:07:17.561Z,12.2
2017-03-10T15:08:26.560Z,12.22
2017-03-10T15:09:35.594Z,12.19
2017-03-10T15:10:44.601Z,12.2
2017-03-10T15:11:54.029Z,12.2
2017-03-10T15:13:03.037Z,12.2
2017-03-10T15:14:11.632Z,12.2
2017-03-10T15:15:21.036Z,12.23